Time;durP1;ratioP1;P1;durP2;ratioP2;P2;SDS_P1;SDS_P2;PMS_P1;PMS_P2;Temp;Humidity;BMP_temperature;BMP_pressure;BME280_temperature;BME280_humidity;BME280_pressure;Samples;Min_cycle;Max_cycle;Signal;HPM_P1;HPM_P2
2022/07/06 00:01:37;;;;;;;;;2.50;2.50;;;;;;;;4937707;28;45471;-50
2022/07/06 00:04:03;;;;;;;;;5.75;3.00;;;;;;;;4936683;28;45975;-52
2022/07/06 00:06:28;;;;;;;;;3.50;2.00;;;;;;;;4937165;28;45408;-52
2022/07/06 00:08:53;;;;;;;;;1.75;1.75;;;;;;;;4937174;28;45401;-49
2022/07/06 00:11:19;;;;;;;;;1.50;1.50;;;;;;;;4937523;28;45669;-54
2022/07/06 00:13:44;;;;;;;;;4.50;4.50;;;;;;;;4936653;28;45542;-53
2022/07/06 00:16:09;;;;;;;;;2.25;2.25;;;;;;;;4937280;28;45258;-51
2022/07/06 00:18:34;;;;;;;;;2.00;1.50;;;;;;;;4936976;28;45320;-54
2022/07/06 00:21:00;;;;;;;;;2.00;2.00;;;;;;;;4937309;28;45541;-52
2022/07/06 00:23:25;;;;;;;;;2.50;2.50;;;;;;;;4936542;28;46634;-54
2022/07/06 00:25:50;;;;;;;;;4.25;3.25;;;;;;;;4937202;28;45428;-51
2022/07/06 00:28:15;;;;;;;;;3.00;2.25;;;;;;;;4892018;28;45915;-53
2022/07/06 00:30:41;;;;;;;;;2.50;2.50;;;;;;;;4916766;28;45289;-55
2022/07/06 00:33:06;;;;;;;;;4.00;4.00;;;;;;;;4917191;28;46697;-52
2022/07/06 00:35:32;;;;;;;;;1.75;1.75;;;;;;;;4917958;28;45352;-49
2022/07/06 00:37:57;;;;;;;;;3.25;1.50;;;;;;;;4916563;28;45420;-48
2022/07/06 00:40:22;;;;;;;;;3.00;3.00;;;;;;;;4917715;28;45367;-52
2022/07/06 00:42:48;;;;;;;;;1.00;1.00;;;;;;;;4917618;28;45351;-50
2022/07/06 00:45:13;;;;;;;;;2.50;2.50;;;;;;;;4917282;28;45310;-54
2022/07/06 00:47:39;;;;;;;;;4.00;2.50;;;;;;;;4918031;28;45310;-55
2022/07/06 00:50:13;;;;;;;;;4.25;3.25;;;;;;;;4917662;28;45654;-53
2022/07/06 00:52:39;;;;;;;;;3.00;3.00;;;;;;;;4916482;28;45369;-52
2022/07/06 00:55:04;;;;;;;;;2.00;2.00;;;;;;;;4917159;28;45298;-54
2022/07/06 00:57:30;;;;;;;;;3.50;3.50;;;;;;;;4917443;28;45644;-50
2022/07/06 00:59:55;;;;;;;;;4.00;4.00;;;;;;;;4916397;28;45734;-53
2022/07/06 01:02:22;;;;;;;;;3.50;3.50;;;;;;;;4919589;28;46581;-51
2022/07/06 01:04:47;;;;;;;;;3.60;3.00;;;;;;;;4920918;28;45339;-49
2022/07/06 01:07:12;;;;;;;;;4.75;2.25;;;;;;;;4920009;28;45724;-51
2022/07/06 01:09:38;;;;;;;;;3.00;3.00;;;;;;;;4920764;28;45360;-51
2022/07/06 01:12:03;;;;;;;;;5.00;5.00;;;;;;;;4920988;28;46660;-49
2022/07/06 01:14:28;;;;;;;;;4.00;2.75;;;;;;;;4928901;28;45403;-51
2022/07/06 01:16:54;;;;;;;;;3.75;3.75;;;;;;;;4938861;28;45418;-50
2022/07/06 01:19:19;;;;;;;;;5.25;4.00;;;;;;;;4940118;28;45375;-51
2022/07/06 01:21:44;;;;;;;;;5.25;4.00;;;;;;;;4939480;28;46247;-49
2022/07/06 01:24:10;;;;;;;;;4.00;2.75;;;;;;;;4939905;28;45343;-51
2022/07/06 01:26:35;;;;;;;;;6.00;4.75;;;;;;;;4938586;28;45361;-51
2022/07/06 01:29:00;;;;;;;;;4.50;3.00;;;;;;;;4940043;28;45654;-49
2022/07/06 01:31:25;;;;;;;;;4.00;4.00;;;;;;;;4938242;28;46107;-54
2022/07/06 01:33:51;;;;;;;;;3.00;3.00;;;;;;;;4939363;28;45423;-50
2022/07/06 01:36:17;;;;;;;;;4.00;4.00;;;;;;;;4938499;28;45309;-50
2022/07/06 01:38:43;;;;;;;;;4.75;3.25;;;;;;;;4939670;28;45232;-50
2022/07/06 01:41:08;;;;;;;;;2.00;2.00;;;;;;;;4939494;28;46663;-52
2022/07/06 01:43:33;;;;;;;;;3.25;3.25;;;;;;;;4939427;28;45333;-52
2022/07/06 01:45:59;;;;;;;;;4.00;3.00;;;;;;;;4939536;28;45463;-53
2022/07/06 01:48:24;;;;;;;;;3.00;3.00;;;;;;;;4939908;28;45316;-53
2022/07/06 01:50:49;;;;;;;;;2.75;2.75;;;;;;;;4938987;28;46977;-52
2022/07/06 01:53:14;;;;;;;;;2.50;2.50;;;;;;;;4939429;28;45230;-48
2022/07/06 01:55:40;;;;;;;;;3.50;3.50;;;;;;;;4939250;28;45257;-48
2022/07/06 01:58:05;;;;;;;;;5.25;3.75;;;;;;;;4939393;28;45223;-51
2022/07/06 02:00:30;;;;;;;;;4.00;3.00;;;;;;;;4928570;28;46790;-52
2022/07/06 02:02:55;;;;;;;;;3.00;3.00;;;;;;;;4937729;28;45196;-56
2022/07/06 02:05:21;;;;;;;;;4.50;4.50;;;;;;;;4936427;28;45729;-50
2022/07/06 02:07:46;;;;;;;;;4.00;3.50;;;;;;;;4936320;28;45420;-49
2022/07/06 02:10:11;;;;;;;;;4.00;2.25;;;;;;;;4937929;28;46013;-55
2022/07/06 02:12:37;;;;;;;;;4.00;4.00;;;;;;;;4937082;28;45297;-49
2022/07/06 02:15:02;;;;;;;;;3.50;3.00;;;;;;;;4936690;28;45305;-51
2022/07/06 02:17:27;;;;;;;;;5.00;5.00;;;;;;;;4938388;28;45436;-54
2022/07/06 02:19:53;;;;;;;;;5.00;4.25;;;;;;;;4938701;28;46575;-52
2022/07/06 02:22:18;;;;;;;;;5.00;4.00;;;;;;;;4937679;28;45381;-48
2022/07/06 02:24:43;;;;;;;;;4.75;4.75;;;;;;;;4938327;28;45402;-51
2022/07/06 02:27:08;;;;;;;;;4.75;4.75;;;;;;;;4939321;28;45428;-51
2022/07/06 02:29:34;;;;;;;;;2.50;2.50;;;;;;;;4937631;28;45428;-55
2022/07/06 02:31:59;;;;;;;;;3.50;3.50;;;;;;;;4938816;28;45368;-53
2022/07/06 02:34:24;;;;;;;;;7.50;4.00;;;;;;;;4939113;28;45260;-51
2022/07/06 02:36:51;;;;;;;;;3.80;3.80;;;;;;;;4938711;28;45478;-51
2022/07/06 02:39:16;;;;;;;;;5.00;4.00;;;;;;;;4938160;28;45750;-51
2022/07/06 02:41:41;;;;;;;;;4.00;4.00;;;;;;;;4938701;28;45654;-50
2022/07/06 02:44:06;;;;;;;;;4.00;4.00;;;;;;;;4938472;28;45332;-53
2022/07/06 02:46:32;;;;;;;;;4.50;3.00;;;;;;;;4938999;28;45358;-54
2022/07/06 02:48:57;;;;;;;;;4.00;4.00;;;;;;;;4938244;28;46415;-52
2022/07/06 02:51:23;;;;;;;;;5.00;4.25;;;;;;;;4938156;28;45360;-50
2022/07/06 02:53:48;;;;;;;;;3.60;3.60;;;;;;;;4938718;28;45265;-49
2022/07/06 02:56:14;;;;;;;;;3.50;3.50;;;;;;;;4938395;28;45847;-50
2022/07/06 02:58:39;;;;;;;;;5.00;5.00;;;;;;;;4938064;28;45580;-53
2022/07/06 03:01:04;;;;;;;;;4.75;4.25;;;;;;;;4938172;28;45301;-53
2022/07/06 03:03:29;;;;;;;;;6.75;5.00;;;;;;;;4938388;28;45424;-51
2022/07/06 03:05:55;;;;;;;;;5.50;5.50;;;;;;;;4938272;28;45330;-51
2022/07/06 03:08:20;;;;;;;;;7.25;4.25;;;;;;;;4937708;28;45463;-50
2022/07/06 03:10:45;;;;;;;;;6.25;5.00;;;;;;;;4938012;28;45368;-51
2022/07/06 03:13:11;;;;;;;;;3.00;3.00;;;;;;;;4938290;28;45361;-51
2022/07/06 03:15:36;;;;;;;;;6.00;4.25;;;;;;;;4921495;28;45613;-48
2022/07/06 03:18:01;;;;;;;;;4.75;4.75;;;;;;;;4918880;28;45520;-51
2022/07/06 03:20:26;;;;;;;;;5.00;4.25;;;;;;;;4918406;28;45340;-51
2022/07/06 03:22:52;;;;;;;;;4.25;4.25;;;;;;;;4918847;28;45386;-48
2022/07/06 03:25:17;;;;;;;;;6.25;5.75;;;;;;;;4918612;28;45362;-54
2022/07/06 03:27:42;;;;;;;;;5.00;5.00;;;;;;;;4918766;28;46983;-51
2022/07/06 03:30:08;;;;;;;;;4.00;4.00;;;;;;;;4919322;28;45334;-51
2022/07/06 03:32:33;;;;;;;;;7.00;5.00;;;;;;;;4918235;28;45294;-52
2022/07/06 03:34:58;;;;;;;;;7.00;6.00;;;;;;;;4891394;28;45659;-47
2022/07/06 03:37:24;;;;;;;;;6.25;6.25;;;;;;;;4918596;28;46737;-53
2022/07/06 03:39:49;;;;;;;;;4.75;4.25;;;;;;;;4918508;28;45485;-55
2022/07/06 03:42:14;;;;;;;;;4.75;4.75;;;;;;;;4917270;28;45397;-50
2022/07/06 03:44:39;;;;;;;;;6.50;4.00;;;;;;;;4918382;28;45690;-52
2022/07/06 03:47:05;;;;;;;;;6.25;5.00;;;;;;;;4918541;28;46997;-50
2022/07/06 03:49:30;;;;;;;;;7.00;4.25;;;;;;;;4917133;28;45459;-51
2022/07/06 03:51:55;;;;;;;;;6.25;6.25;;;;;;;;4918105;28;45399;-52
2022/07/06 03:54:21;;;;;;;;;7.50;6.25;;;;;;;;4918738;28;45371;-51
2022/07/06 03:56:46;;;;;;;;;5.50;4.25;;;;;;;;4918419;28;47106;-50
2022/07/06 03:59:11;;;;;;;;;4.50;4.50;;;;;;;;4918331;28;45269;-52
2022/07/06 04:01:36;;;;;;;;;6.50;4.75;;;;;;;;4918288;28;45353;-49
2022/07/06 04:04:02;;;;;;;;;6.75;5.25;;;;;;;;4918887;28;45669;-50
2022/07/06 04:06:27;;;;;;;;;7.00;7.00;;;;;;;;4918448;28;45702;-51
2022/07/06 04:08:52;;;;;;;;;6.75;5.25;;;;;;;;4918400;28;45329;-49
2022/07/06 04:11:17;;;;;;;;;6.00;6.00;;;;;;;;4918705;28;45294;-53
2022/07/06 04:13:43;;;;;;;;;6.25;6.00;;;;;;;;4918792;28;45600;-52
2022/07/06 04:16:08;;;;;;;;;6.25;4.00;;;;;;;;4936807;28;45806;-47
2022/07/06 04:18:33;;;;;;;;;6.00;6.00;;;;;;;;4937393;28;45218;-51
2022/07/06 04:20:59;;;;;;;;;4.75;4.75;;;;;;;;4937816;28;45603;-49
2022/07/06 04:23:24;;;;;;;;;4.25;4.25;;;;;;;;4938183;28;45490;-52
2022/07/06 04:25:49;;;;;;;;;6.25;4.75;;;;;;;;4937594;28;45930;-54
2022/07/06 04:28:15;;;;;;;;;6.75;5.25;;;;;;;;4937546;28;45198;-49
2022/07/06 04:30:40;;;;;;;;;5.25;5.25;;;;;;;;4937704;28;45219;-52
2022/07/06 04:33:05;;;;;;;;;6.75;6.00;;;;;;;;4938067;28;45538;-51
2022/07/06 04:35:30;;;;;;;;;5.75;5.75;;;;;;;;4919848;28;46018;-48
2022/07/06 04:37:56;;;;;;;;;5.25;5.25;;;;;;;;4932361;28;45210;-52
2022/07/06 04:40:21;;;;;;;;;7.00;7.00;;;;;;;;4940866;28;45299;-50
2022/07/06 04:42:46;;;;;;;;;7.00;6.75;;;;;;;;4941172;28;45372;-56
2022/07/06 04:45:12;;;;;;;;;4.25;4.25;;;;;;;;4940766;28;46703;-49
2022/07/06 04:47:37;;;;;;;;;5.25;5.25;;;;;;;;4940975;28;45343;-51
2022/07/06 04:50:03;;;;;;;;;8.50;8.00;;;;;;;;4940885;28;45276;-50
2022/07/06 04:52:28;;;;;;;;;5.75;5.75;;;;;;;;4941047;28;45475;-49
2022/07/06 04:54:56;;;;;;;;;5.00;5.00;;;;;;;;4940154;28;46450;-51
2022/07/06 04:57:21;;;;;;;;;7.00;5.80;;;;;;;;4940563;28;45512;-52
2022/07/06 04:59:47;;;;;;;;;7.25;6.00;;;;;;;;4940944;28;45880;-54
2022/07/06 05:02:12;;;;;;;;;6.75;6.75;;;;;;;;4940434;28;45450;-54
2022/07/06 05:04:37;;;;;;;;;6.25;6.25;;;;;;;;4940787;28;45565;-49
2022/07/06 05:07:03;;;;;;;;;8.00;7.25;;;;;;;;4940467;28;45341;-56
2022/07/06 05:09:28;;;;;;;;;6.00;6.00;;;;;;;;4940688;28;45598;-51
2022/07/06 05:11:53;;;;;;;;;6.00;6.00;;;;;;;;4940494;28;45273;-55
2022/07/06 05:14:19;;;;;;;;;6.00;6.00;;;;;;;;4939047;28;46648;-45
2022/07/06 05:16:44;;;;;;;;;5.00;5.00;;;;;;;;4921231;28;45248;-52
2022/07/06 05:19:09;;;;;;;;;7.00;7.00;;;;;;;;4920104;28;45329;-51
2022/07/06 05:21:34;;;;;;;;;9.25;8.50;;;;;;;;4921025;28;45549;-50
2022/07/06 05:24:00;;;;;;;;;9.25;8.50;;;;;;;;4921032;28;45489;-52
2022/07/06 05:26:25;;;;;;;;;12.00;10.00;;;;;;;;4921073;28;45292;-52
2022/07/06 05:28:50;;;;;;;;;9.00;8.25;;;;;;;;4921357;28;45458;-50
2022/07/06 05:31:15;;;;;;;;;6.50;6.50;;;;;;;;4920700;28;45311;-52
2022/07/06 05:33:41;;;;;;;;;5.50;4.50;;;;;;;;4920882;28;45909;-49
2022/07/06 05:36:06;;;;;;;;;8.00;8.00;;;;;;;;4920910;28;45767;-51
2022/07/06 05:38:31;;;;;;;;;6.75;6.75;;;;;;;;4919799;28;45355;-52
2022/07/06 05:40:57;;;;;;;;;8.25;8.25;;;;;;;;4921134;28;45349;-54
2022/07/06 05:43:22;;;;;;;;;5.75;5.50;;;;;;;;4919245;28;46112;-53
2022/07/06 05:45:47;;;;;;;;;6.25;6.00;;;;;;;;4920873;28;45316;-53
2022/07/06 05:50:56;;;;;;;;;7.80;7.80;;;;;;;;4920911;28;45261;-56
2022/07/06 05:53:21;;;;;;;;;8.25;8.25;;;;;;;;4920717;28;46830;-52
2022/07/06 05:55:47;;;;;;;;;10.75;9.75;;;;;;;;4920721;28;45583;-50
2022/07/06 05:58:12;;;;;;;;;9.25;8.00;;;;;;;;4920094;28;45421;-53
2022/07/06 06:00:37;;;;;;;;;9.00;8.00;;;;;;;;4920784;28;45613;-50
2022/07/06 06:03:02;;;;;;;;;9.25;8.25;;;;;;;;4920292;28;46876;-52
2022/07/06 06:05:28;;;;;;;;;7.75;7.75;;;;;;;;4919150;28;45337;-50
2022/07/06 06:07:53;;;;;;;;;8.00;8.00;;;;;;;;4920190;28;45385;-52
2022/07/06 06:10:19;;;;;;;;;8.75;8.25;;;;;;;;4920645;28;45303;-52
2022/07/06 06:12:44;;;;;;;;;8.75;8.75;;;;;;;;4920121;28;45508;-51
2022/07/06 06:15:10;;;;;;;;;9.00;9.00;;;;;;;;4927682;28;45441;-49
2022/07/06 06:17:35;;;;;;;;;9.75;8.75;;;;;;;;4938832;28;45406;-51
2022/07/06 06:20:00;;;;;;;;;12.00;10.25;;;;;;;;4939512;28;45365;-51
2022/07/06 06:22:26;;;;;;;;;8.50;8.00;;;;;;;;4937671;28;46344;-54
2022/07/06 06:24:51;;;;;;;;;12.00;8.75;;;;;;;;4934430;28;45491;-54
2022/07/06 06:27:16;;;;;;;;;11.75;8.25;;;;;;;;4934145;28;45871;-49
2022/07/06 06:29:43;;;;;;;;;9.50;8.25;;;;;;;;4929814;28;45598;-49
2022/07/06 06:32:09;;;;;;;;;7.40;7.40;;;;;;;;4937330;28;46299;-54
2022/07/06 06:34:34;;;;;;;;;11.00;9.00;;;;;;;;4937718;28;45306;-46
2022/07/06 06:36:59;;;;;;;;;10.50;9.25;;;;;;;;4937533;28;45819;-50
2022/07/06 06:39:25;;;;;;;;;10.75;9.00;;;;;;;;4937731;28;45434;-56
2022/07/06 06:41:50;;;;;;;;;8.00;8.00;;;;;;;;4936287;28;45437;-48
2022/07/06 06:44:17;;;;;;;;;10.00;10.00;;;;;;;;4938103;28;45430;-51
2022/07/06 06:46:42;;;;;;;;;10.00;10.00;;;;;;;;4936789;28;45425;-49
2022/07/06 06:49:08;;;;;;;;;8.50;8.50;;;;;;;;4938669;28;45583;-51
2022/07/06 06:51:33;;;;;;;;;9.25;9.25;;;;;;;;4938108;28;45882;-52
2022/07/06 06:53:58;;;;;;;;;12.75;8.75;;;;;;;;4938157;28;45559;-51
2022/07/06 06:56:23;;;;;;;;;7.75;7.75;;;;;;;;4938853;28;45383;-52
2022/07/06 06:58:49;;;;;;;;;10.00;8.25;;;;;;;;4938032;28;45390;-49
2022/07/06 07:01:14;;;;;;;;;5.25;5.25;;;;;;;;4938099;28;47068;-54
2022/07/06 07:03:39;;;;;;;;;9.25;8.75;;;;;;;;4900859;28;45622;-48
2022/07/06 07:06:04;;;;;;;;;9.25;8.00;;;;;;;;4918769;28;45411;-53
2022/07/06 07:08:30;;;;;;;;;11.75;8.75;;;;;;;;4914217;28;45598;-55
2022/07/06 07:10:55;;;;;;;;;6.75;6.75;;;;;;;;4927159;28;45515;-50
2022/07/06 07:13:20;;;;;;;;;7.75;7.75;;;;;;;;4934164;28;46089;-47
2022/07/06 07:15:46;;;;;;;;;9.75;9.00;;;;;;;;4921506;28;46071;-49
2022/07/06 07:18:11;;;;;;;;;8.50;8.00;;;;;;;;4914246;28;45400;-48
2022/07/06 07:20:36;;;;;;;;;8.75;8.75;;;;;;;;4924786;28;46733;-55
2022/07/06 07:23:01;;;;;;;;;8.75;8.75;;;;;;;;4926928;28;45420;-48
2022/07/06 07:25:27;;;;;;;;;6.25;6.25;;;;;;;;4899666;28;45486;-51
2022/07/06 07:27:52;;;;;;;;;9.00;7.50;;;;;;;;4931198;28;45388;-52
2022/07/06 07:30:18;;;;;;;;;10.00;8.75;;;;;;;;4920419;28;46355;-53
2022/07/06 07:32:43;;;;;;;;;10.25;8.25;;;;;;;;4932465;28;45420;-50
2022/07/06 07:35:08;;;;;;;;;8.50;7.00;;;;;;;;4933683;28;45390;-53
2022/07/06 07:37:34;;;;;;;;;8.00;7.00;;;;;;;;4924570;28;46031;-53
2022/07/06 07:39:59;;;;;;;;;8.00;7.50;;;;;;;;4914125;28;45958;-54
2022/07/06 07:42:24;;;;;;;;;6.75;5.75;;;;;;;;4914264;28;45377;-50
2022/07/06 07:44:49;;;;;;;;;12.75;9.50;;;;;;;;4917950;28;45491;-50
2022/07/06 07:47:15;;;;;;;;;7.50;7.00;;;;;;;;4933581;28;45432;-49
2022/07/06 07:49:40;;;;;;;;;5.25;5.25;;;;;;;;4933357;28;46711;-51
2022/07/06 07:52:05;;;;;;;;;6.25;6.25;;;;;;;;4926054;28;45734;-54
2022/07/06 07:54:31;;;;;;;;;10.50;9.50;;;;;;;;4933678;28;45815;-53
2022/07/06 07:56:56;;;;;;;;;6.50;5.50;;;;;;;;4936669;28;45288;-50
2022/07/06 07:59:22;;;;;;;;;6.25;6.25;;;;;;;;4937069;28;45878;-47
2022/07/06 08:01:47;;;;;;;;;8.00;8.00;;;;;;;;4937693;28;45776;-53
2022/07/06 08:04:12;;;;;;;;;8.00;8.00;;;;;;;;4937167;28;45645;-51
2022/07/06 08:06:38;;;;;;;;;8.25;8.25;;;;;;;;4937930;28;45704;-51
2022/07/06 08:09:04;;;;;;;;;5.75;4.75;;;;;;;;4936118;28;47072;-56
2022/07/06 08:11:30;;;;;;;;;7.00;7.00;;;;;;;;4925840;28;45870;-55
2022/07/06 08:13:55;;;;;;;;;5.50;4.50;;;;;;;;4936823;28;45471;-46
2022/07/06 08:16:20;;;;;;;;;6.50;6.50;;;;;;;;4929351;28;45356;-54
2022/07/06 08:18:46;;;;;;;;;5.50;5.50;;;;;;;;4916915;28;46529;-52
2022/07/06 08:21:11;;;;;;;;;8.00;8.00;;;;;;;;4917325;28;45410;-48
2022/07/06 08:23:37;;;;;;;;;7.25;7.25;;;;;;;;4917685;28;45415;-50
2022/07/06 08:26:02;;;;;;;;;9.00;7.00;;;;;;;;4867200;28;46076;-51
2022/07/06 08:28:28;;;;;;;;;9.50;8.00;;;;;;;;4915934;28;46609;-51
2022/07/06 08:30:54;;;;;;;;;9.25;6.50;;;;;;;;4924431;28;45687;-47
2022/07/06 08:33:19;;;;;;;;;4.80;4.80;;;;;;;;4931732;28;45432;-52
2022/07/06 08:35:45;;;;;;;;;6.50;5.50;;;;;;;;4932548;28;45331;-54
2022/07/06 08:38:10;;;;;;;;;7.00;6.00;;;;;;;;4932414;28;46764;-54
2022/07/06 08:40:35;;;;;;;;;9.50;7.25;;;;;;;;4931630;28;45699;-49
2022/07/06 08:43:00;;;;;;;;;9.00;7.25;;;;;;;;4917198;28;46462;-51
2022/07/06 08:45:26;;;;;;;;;2.00;2.00;;;;;;;;4928503;28;45340;-49
2022/07/06 08:47:51;;;;;;;;;11.25;8.75;;;;;;;;4929886;28;46016;-47
2022/07/06 08:50:17;;;;;;;;;5.75;5.75;;;;;;;;4930861;28;45790;-51
2022/07/06 08:52:42;;;;;;;;;7.25;7.25;;;;;;;;4930619;28;45840;-51
2022/07/06 08:55:10;;;;;;;;;7.50;7.50;;;;;;;;4919511;28;45521;-53
2022/07/06 08:57:35;;;;;;;;;5.00;5.00;;;;;;;;4936071;28;46696;-52
2022/07/06 09:00:01;;;;;;;;;4.75;4.75;;;;;;;;4934240;28;45414;-53
2022/07/06 09:02:26;;;;;;;;;5.50;5.50;;;;;;;;4937445;28;45404;-54
2022/07/06 09:04:53;;;;;;;;;8.25;7.00;;;;;;;;4929659;28;45431;-53
2022/07/06 09:07:18;;;;;;;;;7.80;5.20;;;;;;;;4929573;28;45420;-48
2022/07/06 09:09:45;;;;;;;;;5.00;5.00;;;;;;;;4934138;28;45545;-52
2022/07/06 09:12:13;;;;;;;;;7.40;5.40;;;;;;;;4920578;28;45337;-48
2022/07/06 09:14:38;;;;;;;;;5.60;5.60;;;;;;;;4918244;28;45368;-55
2022/07/06 09:17:04;;;;;;;;;5.00;5.00;;;;;;;;4935112;28;45438;-50
2022/07/06 09:19:33;;;;;;;;;5.75;5.75;;;;;;;;4935343;28;45290;-48
2022/07/06 09:21:59;;;;;;;;;4.00;4.00;;;;;;;;4912723;28;45599;-51
2022/07/06 09:24:26;;;;;;;;;7.25;6.50;;;;;;;;4933372;28;45430;-52
2022/07/06 09:26:51;;;;;;;;;4.00;3.20;;;;;;;;4912919;28;46470;-50
2022/07/06 09:29:16;;;;;;;;;2.50;2.50;;;;;;;;4928892;28;45940;-55
2022/07/06 09:31:41;;;;;;;;;8.00;6.75;;;;;;;;4934565;28;45617;-53
2022/07/06 09:34:09;;;;;;;;;6.25;4.75;;;;;;;;4936177;28;45424;-51
2022/07/06 09:36:44;;;;;;;;;6.00;3.00;;;;;;;;4935649;28;45502;-50
2022/07/06 09:39:16;;;;;;;;;5.40;5.00;;;;;;;;4935458;28;45499;-52
2022/07/06 09:41:41;;;;;;;;;2.80;2.80;;;;;;;;4935878;28;45487;-51
2022/07/06 09:44:06;;;;;;;;;4.00;4.00;;;;;;;;4928103;28;45477;-53
2022/07/06 09:46:37;;;;;;;;;4.00;2.50;;;;;;;;4916170;28;46530;-57
2022/07/06 09:49:02;;;;;;;;;3.00;3.00;;;;;;;;4916667;28;45692;-53
2022/07/06 09:51:30;;;;;;;;;3.25;3.25;;;;;;;;4916522;28;45659;-48
2022/07/06 09:53:57;;;;;;;;;3.20;3.20;;;;;;;;4916727;28;45574;-50
2022/07/06 09:56:22;;;;;;;;;4.00;3.20;;;;;;;;4915365;28;46866;-51
2022/07/06 09:58:50;;;;;;;;;4.00;4.00;;;;;;;;4914785;28;45738;-52
2022/07/06 10:01:25;;;;;;;;;3.60;3.60;;;;;;;;4916280;28;45399;-52
2022/07/06 10:03:50;;;;;;;;;3.20;3.20;;;;;;;;4916403;28;45551;-57
2022/07/06 10:06:16;;;;;;;;;2.50;2.50;;;;;;;;4914862;28;45612;-58
2022/07/06 10:08:41;;;;;;;;;4.50;4.00;;;;;;;;4915552;28;45479;-53
2022/07/06 10:11:06;;;;;;;;;3.00;3.00;;;;;;;;4914896;28;45405;-51
2022/07/06 10:13:31;;;;;;;;;2.25;2.25;;;;;;;;4916258;28;45488;-52
2022/07/06 10:15:57;;;;;;;;;3.00;2.75;;;;;;;;4925279;28;46870;-50
2022/07/06 10:18:22;;;;;;;;;4.50;4.50;;;;;;;;4932498;28;45424;-52
2022/07/06 10:20:48;;;;;;;;;3.00;3.00;;;;;;;;4932857;28;45827;-54
2022/07/06 10:23:13;;;;;;;;;2.50;2.50;;;;;;;;4934880;28;45483;-52
2022/07/06 10:25:38;;;;;;;;;3.50;3.50;;;;;;;;4922424;28;45582;-52
2022/07/06 10:28:10;;;;;;;;;7.25;3.75;;;;;;;;4933617;28;45368;-54
2022/07/06 10:30:36;;;;;;;;;3.80;3.80;;;;;;;;4935360;28;45701;-51
2022/07/06 10:33:01;;;;;;;;;4.00;4.00;;;;;;;;4923899;28;45626;-52
2022/07/06 10:35:27;;;;;;;;;3.25;2.50;;;;;;;;4890368;28;46722;-54
2022/07/06 10:38:04;;;;;;;;;6.75;4.75;;;;;;;;4915566;28;45445;-52
2022/07/06 10:43:17;;;;;;;;;6.80;5.00;;;;;;;;4914728;28;45706;-51
2022/07/06 10:45:45;;;;;;;;;4.25;3.75;;;;;;;;4914962;28;46546;-53
2022/07/06 10:48:10;;;;;;;;;5.00;5.00;;;;;;;;4915191;28;45779;-56
2022/07/06 10:50:36;;;;;;;;;6.25;6.25;;;;;;;;4915669;28;45467;-54
2022/07/06 10:53:01;;;;;;;;;5.00;5.00;;;;;;;;4915951;28;45706;-49
2022/07/06 10:55:34;;;;;;;;;5.00;5.00;;;;;;;;4915180;28;45901;-55
2022/07/06 10:58:00;;;;;;;;;7.00;5.20;;;;;;;;4914412;28;45724;-55
2022/07/06 11:00:25;;;;;;;;;4.80;4.00;;;;;;;;4915187;28;45752;-55
2022/07/06 11:02:51;;;;;;;;;5.75;4.25;;;;;;;;4915512;28;45424;-51
2022/07/06 11:05:34;;;;;;;;;5.50;3.25;;;;;;;;4920874;28;46016;-48
2022/07/06 11:08:03;;;;;;;;;5.40;5.00;;;;;;;;4915311;28;45468;-48
2022/07/06 11:10:28;;;;;;;;;3.40;3.40;;;;;;;;4932417;28;45583;-55
2022/07/06 11:13:00;;;;;;;;;6.25;4.00;;;;;;;;4933061;28;45452;-57
2022/07/06 11:15:44;;;;;;;;;5.20;5.20;;;;;;;;4927379;28;45852;-49
2022/07/06 11:18:10;;;;;;;;;4.00;4.00;;;;;;;;4914630;28;45591;-49
2022/07/06 11:20:35;;;;;;;;;4.50;3.00;;;;;;;;4914350;28;45776;-54
2022/07/06 11:23:00;;;;;;;;;7.50;5.75;;;;;;;;4915526;28;45745;-56
2022/07/06 11:25:26;;;;;;;;;4.75;4.75;;;;;;;;4923065;28;45727;-53
2022/07/06 11:27:51;;;;;;;;;7.00;7.00;;;;;;;;4932372;28;45516;-53
2022/07/06 11:30:16;;;;;;;;;5.25;5.25;;;;;;;;4932777;28;45403;-52
2022/07/06 11:32:42;;;;;;;;;5.25;5.25;;;;;;;;4928753;28;45856;-54
2022/07/06 11:35:07;;;;;;;;;7.00;7.00;;;;;;;;4921000;28;45597;-55
2022/07/06 11:37:32;;;;;;;;;5.75;5.75;;;;;;;;4933688;28;45479;-52
2022/07/06 11:39:57;;;;;;;;;6.00;6.00;;;;;;;;4934112;28;45459;-51
2022/07/06 11:42:23;;;;;;;;;6.00;6.00;;;;;;;;4932879;28;45695;-52
2022/07/06 11:44:50;;;;;;;;;4.00;4.00;;;;;;;;4928539;28;47828;-56
2022/07/06 11:47:15;;;;;;;;;8.60;8.60;;;;;;;;4914810;28;45464;-51
2022/07/06 11:49:40;;;;;;;;;5.25;5.00;;;;;;;;4914745;28;45861;-53
2022/07/06 11:52:11;;;;;;;;;6.50;6.50;;;;;;;;4897770;28;45676;-54
2022/07/06 11:54:36;;;;;;;;;8.60;8.20;;;;;;;;4914501;28;46589;-51
2022/07/06 11:57:03;;;;;;;;;6.50;6.50;;;;;;;;4913932;28;45409;-54
2022/07/06 11:59:31;;;;;;;;;10.20;7.20;;;;;;;;4914177;28;45759;-54
2022/07/06 12:01:57;;;;;;;;;7.60;7.40;;;;;;;;4924434;28;45442;-47
2022/07/06 12:04:23;;;;;;;;;5.75;5.75;;;;;;;;4933953;28;45940;-49
2022/07/06 12:06:49;;;;;;;;;7.60;6.40;;;;;;;;4921812;28;46079;-56
2022/07/06 12:09:14;;;;;;;;;4.00;4.00;;;;;;;;4928866;28;45700;-50
2022/07/06 12:11:41;;;;;;;;;4.50;4.50;;;;;;;;4914656;28;45448;-51
2022/07/06 12:14:15;;;;;;;;;8.00;6.40;;;;;;;;4914241;28;46198;-57
2022/07/06 12:16:40;;;;;;;;;6.60;5.80;;;;;;;;4928745;28;45765;-54
2022/07/06 12:19:06;;;;;;;;;7.00;7.00;;;;;;;;4931870;28;45855;-50
2022/07/06 12:21:31;;;;;;;;;6.50;5.75;;;;;;;;4927287;28;45591;-56
2022/07/06 12:23:56;;;;;;;;;7.00;7.00;;;;;;;;4913741;28;45882;-51
2022/07/06 12:26:25;;;;;;;;;5.00;5.00;;;;;;;;4914118;28;45452;-51
2022/07/06 12:29:00;;;;;;;;;5.20;5.20;;;;;;;;4913666;28;45457;-49
2022/07/06 12:31:32;;;;;;;;;4.80;4.80;;;;;;;;4913005;28;45807;-51
2022/07/06 12:33:57;;;;;;;;;4.00;4.00;;;;;;;;4913057;28;47484;-54
2022/07/06 12:36:23;;;;;;;;;3.75;3.75;;;;;;;;4914065;28;45397;-52
2022/07/06 12:38:48;;;;;;;;;6.00;6.00;;;;;;;;4913629;28;45385;-55
2022/07/06 12:41:25;;;;;;;;;9.00;6.50;;;;;;;;4914119;28;45713;-49
2022/07/06 12:43:59;;;;;;;;;8.80;6.00;;;;;;;;4913297;28;46959;-54
2022/07/06 12:46:31;;;;;;;;;6.00;6.00;;;;;;;;4913949;28;45644;-49
2022/07/06 12:48:57;;;;;;;;;4.80;4.80;;;;;;;;4924882;28;45495;-48
2022/07/06 12:51:22;;;;;;;;;6.00;4.40;;;;;;;;4930813;28;45451;-50
2022/07/06 12:53:48;;;;;;;;;6.00;6.00;;;;;;;;4931244;28;45932;-52
2022/07/06 12:56:13;;;;;;;;;8.50;7.50;;;;;;;;4932350;28;45392;-48
2022/07/06 12:58:39;;;;;;;;;8.00;6.00;;;;;;;;4924501;28;45892;-49
2022/07/06 13:01:04;;;;;;;;;7.00;5.75;;;;;;;;4914394;28;45416;-49
2022/07/06 13:03:41;;;;;;;;;7.75;7.75;;;;;;;;4898593;28;46512;-47
2022/07/06 13:06:06;;;;;;;;;4.80;4.80;;;;;;;;4914163;28;45610;-51
2022/07/06 13:08:32;;;;;;;;;5.50;5.50;;;;;;;;4925536;28;45470;-49
2022/07/06 13:10:57;;;;;;;;;6.50;6.50;;;;;;;;4922893;28;45738;-50
2022/07/06 13:13:22;;;;;;;;;6.50;5.75;;;;;;;;4916152;28;45659;-46
2022/07/06 13:15:48;;;;;;;;;5.75;5.75;;;;;;;;4920956;28;45380;-50
2022/07/06 13:18:13;;;;;;;;;6.50;5.75;;;;;;;;4935324;28;45523;-51
2022/07/06 13:20:38;;;;;;;;;3.25;3.25;;;;;;;;4935454;28;45609;-50
2022/07/06 13:23:03;;;;;;;;;4.25;4.25;;;;;;;;4921816;28;45944;-54
2022/07/06 13:25:29;;;;;;;;;4.25;4.25;;;;;;;;4937841;28;45796;-49
2022/07/06 13:27:54;;;;;;;;;3.50;3.50;;;;;;;;4894805;28;45525;-47
2022/07/06 13:30:19;;;;;;;;;4.75;4.75;;;;;;;;4919107;28;45852;-48
2022/07/06 13:32:44;;;;;;;;;8.75;7.00;;;;;;;;4919645;28;45435;-51
2022/07/06 13:35:10;;;;;;;;;6.00;6.00;;;;;;;;4919510;28;45384;-52
2022/07/06 13:37:35;;;;;;;;;3.50;3.50;;;;;;;;4919002;28;45458;-47
2022/07/06 13:40:00;;;;;;;;;4.75;4.75;;;;;;;;4929449;28;45517;-53
2022/07/06 13:42:25;;;;;;;;;3.00;3.00;;;;;;;;4922167;28;45390;-48
2022/07/06 13:44:51;;;;;;;;;4.75;4.75;;;;;;;;4919219;28;45362;-52
2022/07/06 13:47:16;;;;;;;;;4.25;4.25;;;;;;;;4919332;28;45548;-50
2022/07/06 13:49:43;;;;;;;;;4.00;4.00;;;;;;;;4920023;28;45490;-47
2022/07/06 13:52:08;;;;;;;;;5.20;4.20;;;;;;;;4917856;28;45891;-49
2022/07/06 13:54:34;;;;;;;;;4.25;4.25;;;;;;;;4918001;28;45355;-54
2022/07/06 13:57:03;;;;;;;;;3.00;3.00;;;;;;;;4926018;28;45500;-51
2022/07/06 13:59:28;;;;;;;;;4.20;4.20;;;;;;;;4939314;28;45890;-54
2022/07/06 14:01:54;;;;;;;;;4.00;3.00;;;;;;;;4938502;28;46444;-46
2022/07/06 14:04:19;;;;;;;;;3.75;3.75;;;;;;;;4925701;28;45503;-50
2022/07/06 14:06:44;;;;;;;;;1.50;1.50;;;;;;;;4914940;28;45469;-50
2022/07/06 14:09:09;;;;;;;;;2.50;2.50;;;;;;;;4919741;28;45653;-52
2022/07/06 14:11:35;;;;;;;;;2.25;2.25;;;;;;;;4919580;28;45576;-53
2022/07/06 14:14:00;;;;;;;;;2.00;2.00;;;;;;;;4919900;28;45430;-49
2022/07/06 14:16:26;;;;;;;;;3.00;2.00;;;;;;;;4928646;28;45347;-53
2022/07/06 14:18:51;;;;;;;;;3.00;3.00;;;;;;;;4931069;28;45695;-51
2022/07/06 14:21:16;;;;;;;;;2.00;2.00;;;;;;;;4905802;28;46149;-49
2022/07/06 14:23:42;;;;;;;;;2.75;1.75;;;;;;;;4915427;28;45806;-51
2022/07/06 14:26:07;;;;;;;;;6.75;4.00;;;;;;;;4915570;28;45725;-52
2022/07/06 14:28:32;;;;;;;;;0.50;0.50;;;;;;;;4916018;28;45787;-52
2022/07/06 14:31:01;;;;;;;;;1.00;1.00;;;;;;;;4914686;28;47325;-52
2022/07/06 14:33:26;;;;;;;;;2.80;2.80;;;;;;;;4915897;28;45456;-51
2022/07/06 14:35:51;;;;;;;;;1.00;1.00;;;;;;;;4915733;28;45501;-53
2022/07/06 14:38:17;;;;;;;;;1.00;1.00;;;;;;;;4923237;28;45649;-46
2022/07/06 14:40:42;;;;;;;;;1.00;1.00;;;;;;;;4934518;28;46408;-50